• Join FlightAware (Why Join?)
  • Login
  • US Flag 
08:46AM EDT


 

Airport Tracker/Info


-or-


 

Live Flight TrackerFlight Track Log ✈ UAL252 ✈ 01-May-2013 ✈ KPHX - KDEN

Flight Track Log - Related Links

Times and Time Zones

All times are in EDT time to prevent confusion due to time zone crossing. See the UAL252 flight status page for this flight to view local times or setup timezone preferences in your user account.

Time Position Orientation Groundspeed Altitude Reporting Facility
EDT Latitude Longitude Course Direction KTS MPH feet Rate Location/Type
04:36PM 33.4333 -112.0333 20° North 167 192 2,000  Level Phoenix TRACON
04:37PM 33.4333 -112.0833 270° West 184 212 3,100 1,020 Climbing Phoenix TRACON
04:38PM 33.4322 -112.1025 266° West 189 217 3,400 1,920 Climbing Albuquerque Center
04:39PM 33.7705 -111.8543 15° North  Level FlightAware Approximate
04:39PM 33.4544 -112.1900 287° West 247 284 6,100  Level Albuquerque Center
04:40PM 33.8835 -111.8063 20° North  Level FlightAware Approximate
04:40PM 33.5314 -112.2044 351° North 280 322 8,600  Level Albuquerque Center
04:41PM 33.9962 -111.7569 20° North  Level FlightAware Approximate
04:41PM 33.6094 -112.1889 North 292 336 11,300  Level Albuquerque Center
04:42PM 34.1090 -111.7078 20° North  Level FlightAware Approximate
04:42PM 33.6836 -112.1208 37° Northeast 340 391 12,600  Level Albuquerque Center
04:43PM 33.7617 -112.0381 41° Northeast 371 427 14,800 1,980 Climbing Albuquerque Center
04:44PM 33.8417 -111.9536 41° Northeast 383 441 16,800 1,980 Climbing Albuquerque Center
04:45PM 33.9378 -111.8514 41° Northeast 392 451 19,000 2,040 Climbing Albuquerque Center
04:46PM 34.0297 -111.7522 42° Northeast 410 472 21,100 1,680 Climbing Albuquerque Center
04:47PM 34.1328 -111.6953 25° Northeast 411 473 22,500 1,440 Climbing Albuquerque Center
04:48PM 34.2486 -111.6519 17° North 418 481 24,100 1,320 Climbing Albuquerque Center
04:49PM 34.3597 -111.6081 18° North 421 484 25,300 1,080 Climbing Albuquerque Center
04:50PM 34.4728 -111.5625 18° North 426 490 26,400 1,020 Climbing Albuquerque Center
04:51PM 34.5792 -111.4844 31° Northeast 448 516 27,500 1,080 Climbing Albuquerque Center
04:52PM 34.6631 -111.3647 50° Northeast 463 533 28,700 960 Climbing Albuquerque Center
04:53PM 34.7500 -111.2433 49° Northeast 473 544 29,500 960 Climbing Albuquerque Center
04:54PM 34.8364 -111.1197 50° Northeast 478 550 30,700 1,140 Climbing Albuquerque Center
04:55PM 34.9389 -110.9692 50° Northeast 481 554 31,900 1,140 Climbing Albuquerque Center
04:56PM 35.0269 -110.8456 49° Northeast 483 556 33,100 960 Climbing Albuquerque Center
04:57PM 35.1114 -110.7206 50° Northeast 480 552 33,900 720 Climbing Albuquerque Center
04:58PM 35.2025 -110.5758 52° Northeast 479 551 34,700 480 Climbing Albuquerque Center
04:59PM 35.2817 -110.4525 52° Northeast 481 554 35,000 120 Climbing Albuquerque Center
05:00PM 35.3728 -110.3108 52° Northeast 476 548 35,000  Level Albuquerque Center
05:02PM 35.4519 -110.1881 52° Northeast 477 549 35,000  Level Albuquerque Center
05:03PM 35.5456 -110.0422 52° Northeast 484 557 35,100  Climbing Albuquerque Center
05:04PM 35.6253 -109.9178 52° Northeast 484 557 35,000 -60 Descending Albuquerque Center
05:05PM 35.7042 -109.7933 52° Northeast 484 557 35,000  Level Albuquerque Center
05:06PM 35.7956 -109.6456 53° Northeast 485 558 35,000  Level Albuquerque Center
05:07PM 35.8756 -109.5203 52° Northeast 486 559 35,000  Level Albuquerque Center
05:07PM 35.9408 -109.4158 52° Northeast 485 558 35,000  Level Denver Center
05:08PM 35.9678 -109.3725 52° Northeast 485 558 35,000  Level Albuquerque Center
05:09PM 36.0472 -109.2450 52° Northeast 486 559 35,000  Level Albuquerque Center
05:10PM 36.1264 -109.1183 52° Northeast 485 558 35,000 -60 Level Denver Center
05:11PM 36.2058 -108.9908 52° Northeast 481 554 34,900 -300 Descending Denver Center
05:12PM 36.2869 -108.8608 52° Northeast 487 560 34,400 -480 Descending Denver Center
05:13PM 36.3794 -108.7094 53° Northeast 489 563 34,000 -240 Descending Denver Center
05:14PM 36.4575 -108.5803 53° Northeast 487 560 34,000 -60 Level Denver Center
05:15PM 36.5497 -108.4294 53° Northeast 489 563 33,900  Descending Denver Center
05:16PM 36.6297 -108.2986 53° Northeast 495 570 34,000  Climbing Denver Center
05:17PM 36.7228 -108.1453 53° Northeast 497 572 34,000  Level Denver Center
05:18PM 36.7992 -108.0494 45° Northeast 492 566 34,000 -240 Level Denver Center
05:19PM 36.9164 -107.9350 38° Northeast 482 555 33,600 -480 Descending Denver Center
05:20PM 37.0319 -107.8189 39° Northeast 478 550 33,000 -300 Descending Denver Center
05:21PM 37.1644 -107.6903 38° Northeast 472 543 33,000  Level Denver Center
05:22PM 37.2633 -107.5897 39° Northeast 477 549 33,000  Level Denver Center
05:23PM 37.3625 -107.4900 39° Northeast 476 548 33,000  Level Denver Center
05:24PM 37.4806 -107.3725 38° Northeast 482 555 33,000  Level Denver Center
05:25PM 37.5794 -107.2703 39° Northeast 481 554 33,000 -60 Level Denver Center
05:26PM 37.6961 -107.1533 38° Northeast 479 551 32,900  Descending Denver Center
05:27PM 37.7964 -107.0506 39° Northeast 483 556 33,000  Climbing Denver Center
05:28PM 37.9136 -106.9247 40° Northeast 493 567 33,000  Level Denver Center
05:29PM 38.0117 -106.8247 39° Northeast 483 556 33,000  Level Denver Center
05:30PM 38.1294 -106.7050 39° Northeast 484 557 33,000  Level Denver Center
05:31PM 38.2311 -106.5983 39° Northeast 491 565 33,000  Level Denver Center
05:33PM 38.3375 -106.4694 44° Northeast 498 573 33,000 -540 Level Denver Center
05:34PM 38.4597 -106.3172 44° Northeast 510 587 31,800 -1,560 Descending Denver Center
05:35PM 38.5600 -106.1911 45° Northeast 509 586 29,800 -1,980 Descending Denver Center
05:36PM 38.6714 -106.0500 45° Northeast 498 573 27,800 -1,800 Descending Denver Center
05:37PM 38.7683 -105.9297 44° Northeast 484 557 26,200 -1,980 Descending Denver Center
05:38PM 38.8664 -105.8056 45° Northeast 488 562 23,800 -1,980 Descending Denver Center
05:39PM 38.9594 -105.6886 44° Northeast 471 542 22,200 -1,620 Descending Denver Center
05:40PM 39.0469 -105.5761 45° Northeast 447 514 20,500 -1,680 Descending Denver Center
05:41PM 39.1311 -105.4675 45° Northeast 431 496 18,800 -1,440 Descending Denver Center
05:42PM 39.2222 -105.3514 45° Northeast 416 479 17,600 -1,020 Descending Denver Center
05:43PM 39.2728 -105.2281 62° Northeast 374 430 16,700 -780 Descending Denver Center
05:44PM 39.2944 -105.1089 77° East 347 399 16,000 -780 Descending Denver Center
05:45PM 39.3150 -105.0006 76° East 322 371 15,200 -660 Descending Denver Center
05:46PM 39.3589 -104.9150 56° Northeast 278 320 14,700 -780 Descending Denver Center
05:47PM 39.4175 -104.8528 39° Northeast 271 312 13,700 -1,020 Descending Denver Center
05:48PM 39.4697 -104.7800 47° Northeast 257 296 12,600 -1,200 Descending Denver Center
05:49PM 39.5111 -104.7103 52° Northeast 246 283 11,300 -1,080 Descending Denver Center
05:50PM 39.5728 -104.6714 26° Northeast 227 261 10,400 -840 Descending Denver Center
05:51PM 39.6256 -104.6628 North 187 215 9,600 -900 Descending Denver Center
05:52PM 39.6739 -104.6619 North 175 201 8,600 -960 Descending Denver Center
05:53PM 39.7142 -104.6622 360° North 172 198 7,700 -900 Descending Denver Center